sensor_id;sensor_type;location;lat;lon;timestamp;temperature;humidity
21762;DHT22;11203;50.870;20.682;2023-03-01T00:01:33;-4.30;1.00
21762;DHT22;11203;50.870;20.682;2023-03-01T00:03:59;-4.30;1.00
21762;DHT22;11203;50.870;20.682;2023-03-01T00:06:26;-4.30;1.00
21762;DHT22;11203;50.870;20.682;2023-03-01T00:08:53;-4.20;1.00
21762;DHT22;11203;50.870;20.682;2023-03-01T00:11:25;-4.20;1.00
21762;DHT22;11203;50.870;20.682;2023-03-01T00:13:57;-4.30;99.90
21762;DHT22;11203;50.870;20.682;2023-03-01T00:16:30;-4.20;99.90
21762;DHT22;11203;50.870;20.682;2023-03-01T00:18:59;-4.10;1.00
21762;DHT22;11203;50.870;20.682;2023-03-01T00:21:26;-4.10;1.00
21762;DHT22;11203;50.870;20.682;2023-03-01T00:23:53;-4.20;1.00
21762;DHT22;11203;50.870;20.682;2023-03-01T00:26:22;-4.30;1.00
21762;DHT22;11203;50.870;20.682;2023-03-01T00:28:49;-4.10;1.00
21762;DHT22;11203;50.870;20.682;2023-03-01T00:31:19;-4.20;1.00
21762;DHT22;11203;50.870;20.682;2023-03-01T00:33:46;-4.20;1.00
21762;DHT22;11203;50.870;20.682;2023-03-01T00:36:15;-4.20;1.00
21762;DHT22;11203;50.870;20.682;2023-03-01T00:38:45;-4.20;1.00
21762;DHT22;11203;50.870;20.682;2023-03-01T00:41:16;-4.20;1.00
21762;DHT22;11203;50.870;20.682;2023-03-01T00:43:44;-4.10;1.00
21762;DHT22;11203;50.870;20.682;2023-03-01T00:46:13;-4.10;99.90
21762;DHT22;11203;50.870;20.682;2023-03-01T00:48:41;-4.00;99.90
21762;DHT22;11203;50.870;20.682;2023-03-01T00:51:08;-4.10;99.90
21762;DHT22;11203;50.870;20.682;2023-03-01T00:53:35;-4.30;1.00
21762;DHT22;11203;50.870;20.682;2023-03-01T00:56:02;-4.20;99.90
21762;DHT22;11203;50.870;20.682;2023-03-01T00:58:30;-4.10;88.20
21762;DHT22;11203;50.870;20.682;2023-03-01T01:00:56;-4.20;99.90
21762;DHT22;11203;50.870;20.682;2023-03-01T01:03:23;-4.10;1.00
21762;DHT22;11203;50.870;20.682;2023-03-01T01:05:52;-4.20;1.00
21762;DHT22;11203;50.870;20.682;2023-03-01T01:08:19;-4.30;1.00
21762;DHT22;11203;50.870;20.682;2023-03-01T01:10:47;-4.30;1.00
21762;DHT22;11203;50.870;20.682;2023-03-01T01:13:14;-4.30;81.40
21762;DHT22;11203;50.870;20.682;2023-03-01T01:15:41;-4.30;1.00
21762;DHT22;11203;50.870;20.682;2023-03-01T01:18:07;-4.40;1.00
21762;DHT22;11203;50.870;20.682;2023-03-01T01:20:35;-4.30;1.00
21762;DHT22;11203;50.870;20.682;2023-03-01T01:23:01;-4.40;1.00
21762;DHT22;11203;50.870;20.682;2023-03-01T01:25:27;-4.40;10.40
21762;DHT22;11203;50.870;20.682;2023-03-01T01:27:53;-4.60;1.00
21762;DHT22;11203;50.870;20.682;2023-03-01T01:30:19;-4.50;1.00
21762;DHT22;11203;50.870;20.682;2023-03-01T01:32:45;-4.60;1.00
21762;DHT22;11203;50.870;20.682;2023-03-01T01:35:11;-4.70;1.00
21762;DHT22;11203;50.870;20.682;2023-03-01T01:37:37;-4.60;1.00
21762;DHT22;11203;50.870;20.682;2023-03-01T01:40:04;-4.70;1.00
21762;DHT22;11203;50.870;20.682;2023-03-01T01:42:30;-4.80;1.00
21762;DHT22;11203;50.870;20.682;2023-03-01T01:47:57;-5.00;1.00
21762;DHT22;11203;50.870;20.682;2023-03-01T01:50:27;-5.00;1.00
21762;DHT22;11203;50.870;20.682;2023-03-01T01:53:08;-5.00;1.00
21762;DHT22;11203;50.870;20.682;2023-03-01T01:55:41;-5.10;1.00
21762;DHT22;11203;50.870;20.682;2023-03-01T01:58:10;-4.90;1.00
21762;DHT22;11203;50.870;20.682;2023-03-01T02:00:38;-4.80;1.00
21762;DHT22;11203;50.870;20.682;2023-03-01T02:03:20;-4.80;1.00
21762;DHT22;11203;50.870;20.682;2023-03-01T02:06:12;-4.80;99.90
21762;DHT22;11203;50.870;20.682;2023-03-01T02:08:42;-4.70;99.90
21762;DHT22;11203;50.870;20.682;2023-03-01T02:11:10;-4.80;99.90
21762;DHT22;11203;50.870;20.682;2023-03-01T02:13:36;-4.80;1.00
21762;DHT22;11203;50.870;20.682;2023-03-01T02:16:14;-4.80;1.00
21762;DHT22;11203;50.870;20.682;2023-03-01T02:18:41;-5.00;1.00
21762;DHT22;11203;50.870;20.682;2023-03-01T02:21:42;-4.90;1.00
21762;DHT22;11203;50.870;20.682;2023-03-01T02:24:24;-5.10;1.00
21762;DHT22;11203;50.870;20.682;2023-03-01T02:26:59;-5.00;1.00
21762;DHT22;11203;50.870;20.682;2023-03-01T02:29:27;-5.10;1.00
21762;DHT22;11203;50.870;20.682;2023-03-01T02:31:56;-5.00;1.00
21762;DHT22;11203;50.870;20.682;2023-03-01T02:34:25;-5.10;1.00
21762;DHT22;11203;50.870;20.682;2023-03-01T02:37:07;-5.10;1.00
21762;DHT22;11203;50.870;20.682;2023-03-01T02:39:43;-5.20;99.90
21762;DHT22;11203;50.870;20.682;2023-03-01T02:42:15;-5.10;1.00
21762;DHT22;11203;50.870;20.682;2023-03-01T02:44:44;-5.00;1.00
21762;DHT22;11203;50.870;20.682;2023-03-01T02:47:10;-5.00;1.00
21762;DHT22;11203;50.870;20.682;2023-03-01T02:49:37;-5.00;1.00
21762;DHT22;11203;50.870;20.682;2023-03-01T02:55:14;-5.00;39.20
21762;DHT22;11203;50.870;20.682;2023-03-01T02:57:44;-5.00;1.00
21762;DHT22;11203;50.870;20.682;2023-03-01T03:00:38;-5.00;38.30
21762;DHT22;11203;50.870;20.682;2023-03-01T03:03:13;-5.10;1.00
21762;DHT22;11203;50.870;20.682;2023-03-01T03:05:41;-5.10;1.00
21762;DHT22;11203;50.870;20.682;2023-03-01T03:08:07;-5.10;1.00
21762;DHT22;11203;50.870;20.682;2023-03-01T03:10:36;-5.00;99.90
21762;DHT22;11203;50.870;20.682;2023-03-01T03:13:11;-5.00;1.00
21762;DHT22;11203;50.870;20.682;2023-03-01T03:15:40;-5.00;1.00
21762;DHT22;11203;50.870;20.682;2023-03-01T03:18:13;-5.10;99.90
21762;DHT22;11203;50.870;20.682;2023-03-01T03:20:42;-5.00;1.00
21762;DHT22;11203;50.870;20.682;2023-03-01T03:23:09;-5.20;1.00
21762;DHT22;11203;50.870;20.682;2023-03-01T03:25:35;-5.20;1.00
21762;DHT22;11203;50.870;20.682;2023-03-01T03:28:04;-5.30;1.00
21762;DHT22;11203;50.870;20.682;2023-03-01T03:30:37;-5.30;1.00
21762;DHT22;11203;50.870;20.682;2023-03-01T03:33:05;-5.40;1.00
21762;DHT22;11203;50.870;20.682;2023-03-01T03:35:34;-5.50;1.00
21762;DHT22;11203;50.870;20.682;2023-03-01T03:38:07;-5.40;99.90
21762;DHT22;11203;50.870;20.682;2023-03-01T03:40:43;-5.50;99.90
21762;DHT22;11203;50.870;20.682;2023-03-01T03:43:14;-5.60;1.00
21762;DHT22;11203;50.870;20.682;2023-03-01T03:45:43;-5.50;1.00
21762;DHT22;11203;50.870;20.682;2023-03-01T03:48:10;-5.60;1.00
21762;DHT22;11203;50.870;20.682;2023-03-01T03:50:37;-5.60;1.00
21762;DHT22;11203;50.870;20.682;2023-03-01T03:53:07;-5.50;1.00
21762;DHT22;11203;50.870;20.682;2023-03-01T03:55:37;-5.40;1.00
21762;DHT22;11203;50.870;20.682;2023-03-01T03:58:09;-5.40;1.00
21762;DHT22;11203;50.870;20.682;2023-03-01T04:00:42;-5.30;99.90
21762;DHT22;11203;50.870;20.682;2023-03-01T04:03:12;-5.30;1.00
21762;DHT22;11203;50.870;20.682;2023-03-01T04:05:40;-5.30;1.00
21762;DHT22;11203;50.870;20.682;2023-03-01T04:08:07;-5.40;99.90
21762;DHT22;11203;50.870;20.682;2023-03-01T04:10:38;-5.50;99.90
21762;DHT22;11203;50.870;20.682;2023-03-01T04:13:07;-5.30;1.00
21762;DHT22;11203;50.870;20.682;2023-03-01T04:15:36;-5.40;1.00
21762;DHT22;11203;50.870;20.682;2023-03-01T04:18:03;-5.30;1.00
21762;DHT22;11203;50.870;20.682;2023-03-01T04:20:32;-5.30;99.90
21762;DHT22;11203;50.870;20.682;2023-03-01T04:23:03;-5.30;1.00
21762;DHT22;11203;50.870;20.682;2023-03-01T04:25:40;-5.20;99.90
21762;DHT22;11203;50.870;20.682;2023-03-01T04:28:09;-5.30;99.90
21762;DHT22;11203;50.870;20.682;2023-03-01T04:30:36;-5.40;99.90
21762;DHT22;11203;50.870;20.682;2023-03-01T04:33:06;-5.50;99.90
21762;DHT22;11203;50.870;20.682;2023-03-01T04:35:33;-5.50;1.00
21762;DHT22;11203;50.870;20.682;2023-03-01T04:38:00;-5.50;1.00
21762;DHT22;11203;50.870;20.682;2023-03-01T04:40:26;-5.60;1.00
21762;DHT22;11203;50.870;20.682;2023-03-01T04:42:52;-5.50;99.90
21762;DHT22;11203;50.870;20.682;2023-03-01T04:45:19;-5.50;99.90
21762;DHT22;11203;50.870;20.682;2023-03-01T04:47:46;-5.60;99.90
21762;DHT22;11203;50.870;20.682;2023-03-01T04:50:15;-5.60;99.90
21762;DHT22;11203;50.870;20.682;2023-03-01T04:52:43;-5.50;99.90
21762;DHT22;11203;50.870;20.682;2023-03-01T04:55:10;-5.40;1.00
21762;DHT22;11203;50.870;20.682;2023-03-01T04:57:37;-5.40;99.90
21762;DHT22;11203;50.870;20.682;2023-03-01T05:00:04;-5.40;99.90
21762;DHT22;11203;50.870;20.682;2023-03-01T05:05:22;-5.50;99.90
21762;DHT22;11203;50.870;20.682;2023-03-01T05:08:02;-5.40;1.00
21762;DHT22;11203;50.870;20.682;2023-03-01T05:10:30;-5.50;1.00
21762;DHT22;11203;50.870;20.682;2023-03-01T05:12:58;-5.60;1.00
21762;DHT22;11203;50.870;20.682;2023-03-01T05:15:26;-5.70;1.00
21762;DHT22;11203;50.870;20.682;2023-03-01T05:17:54;-5.60;1.00
21762;DHT22;11203;50.870;20.682;2023-03-01T05:20:21;-5.50;1.00
21762;DHT22;11203;50.870;20.682;2023-03-01T05:22:51;-5.60;1.00
21762;DHT22;11203;50.870;20.682;2023-03-01T05:25:18;-5.50;1.00
21762;DHT22;11203;50.870;20.682;2023-03-01T05:27:44;-5.60;99.90
21762;DHT22;11203;50.870;20.682;2023-03-01T05:30:11;-5.60;99.90
21762;DHT22;11203;50.870;20.682;2023-03-01T05:32:46;-5.70;99.90
21762;DHT22;11203;50.870;20.682;2023-03-01T05:35:14;-5.60;1.00
21762;DHT22;11203;50.870;20.682;2023-03-01T05:37:43;-5.80;94.70
21762;DHT22;11203;50.870;20.682;2023-03-01T05:40:13;-5.90;99.90
21762;DHT22;11203;50.870;20.682;2023-03-01T05:42:50;-5.80;53.30
21762;DHT22;11203;50.870;20.682;2023-03-01T05:45:18;-5.70;1.00
21762;DHT22;11203;50.870;20.682;2023-03-01T05:47:48;-5.90;1.00
21762;DHT22;11203;50.870;20.682;2023-03-01T05:50:18;-5.90;1.00
21762;DHT22;11203;50.870;20.682;2023-03-01T05:53:08;-5.80;31.90
21762;DHT22;11203;50.870;20.682;2023-03-01T05:55:34;-5.70;99.90
21762;DHT22;11203;50.870;20.682;2023-03-01T05:58:05;-5.70;99.90
21762;DHT22;11203;50.870;20.682;2023-03-01T06:00:33;-5.60;99.90
21762;DHT22;11203;50.870;20.682;2023-03-01T06:02:59;-5.60;99.90
21762;DHT22;11203;50.870;20.682;2023-03-01T06:05:27;-5.20;1.00
21762;DHT22;11203;50.870;20.682;2023-03-01T06:07:54;-5.30;99.90
21762;DHT22;11203;50.870;20.682;2023-03-01T06:10:21;-5.40;1.00
21762;DHT22;11203;50.870;20.682;2023-03-01T06:12:48;-5.40;99.90
21762;DHT22;11203;50.870;20.682;2023-03-01T06:15:16;-5.40;1.00
21762;DHT22;11203;50.870;20.682;2023-03-01T06:17:44;-5.30;1.00
21762;DHT22;11203;50.870;20.682;2023-03-01T06:20:14;-5.20;1.00
21762;DHT22;11203;50.870;20.682;2023-03-01T06:22:44;-5.20;1.00
21762;DHT22;11203;50.870;20.682;2023-03-01T06:25:12;-5.20;1.00
21762;DHT22;11203;50.870;20.682;2023-03-01T06:27:40;-5.00;1.00
21762;DHT22;11203;50.870;20.682;2023-03-01T06:30:07;-4.90;1.00
21762;DHT22;11203;50.870;20.682;2023-03-01T06:32:35;-4.90;1.00
21762;DHT22;11203;50.870;20.682;2023-03-01T06:35:03;-4.90;1.00
21762;DHT22;11203;50.870;20.682;2023-03-01T06:37:30;-4.70;1.00
21762;DHT22;11203;50.870;20.682;2023-03-01T06:39:56;-4.60;1.00
21762;DHT22;11203;50.870;20.682;2023-03-01T06:42:22;-4.50;1.00
21762;DHT22;11203;50.870;20.682;2023-03-01T06:44:48;-4.50;1.00
21762;DHT22;11203;50.870;20.682;2023-03-01T06:47:15;-4.40;99.90
21762;DHT22;11203;50.870;20.682;2023-03-01T06:49:41;-4.40;1.00
21762;DHT22;11203;50.870;20.682;2023-03-01T06:52:07;-4.30;1.00
21762;DHT22;11203;50.870;20.682;2023-03-01T06:54:33;-4.20;1.00
21762;DHT22;11203;50.870;20.682;2023-03-01T06:56:59;-4.10;1.00
21762;DHT22;11203;50.870;20.682;2023-03-01T06:59:25;-4.10;1.00
21762;DHT22;11203;50.870;20.682;2023-03-01T07:01:51;-4.00;99.90
21762;DHT22;11203;50.870;20.682;2023-03-01T07:04:17;-4.00;99.90
21762;DHT22;11203;50.870;20.682;2023-03-01T07:06:43;-3.90;99.90
21762;DHT22;11203;50.870;20.682;2023-03-01T07:09:09;-3.80;1.00
21762;DHT22;11203;50.870;20.682;2023-03-01T07:11:36;-3.70;1.00
21762;DHT22;11203;50.870;20.682;2023-03-01T07:14:02;-3.60;19.10
21762;DHT22;11203;50.870;20.682;2023-03-01T07:16:29;-3.50;99.90
21762;DHT22;11203;50.870;20.682;2023-03-01T07:18:54;-3.40;1.00
21762;DHT22;11203;50.870;20.682;2023-03-01T07:21:21;-3.20;78.40
21762;DHT22;11203;50.870;20.682;2023-03-01T07:23:48;-3.10;1.00
21762;DHT22;11203;50.870;20.682;2023-03-01T07:26:18;-3.00;99.90
21762;DHT22;11203;50.870;20.682;2023-03-01T07:28:44;-2.90;1.00
21762;DHT22;11203;50.870;20.682;2023-03-01T07:31:10;-2.70;99.90
21762;DHT22;11203;50.870;20.682;2023-03-01T07:33:37;-2.50;1.00
21762;DHT22;11203;50.870;20.682;2023-03-01T07:36:04;-2.50;45.60
21762;DHT22;11203;50.870;20.682;2023-03-01T07:38:30;-2.40;68.20
21762;DHT22;11203;50.870;20.682;2023-03-01T07:40:59;-2.30;99.90
21762;DHT22;11203;50.870;20.682;2023-03-01T07:43:27;-2.20;1.00
21762;DHT22;11203;50.870;20.682;2023-03-01T07:45:54;-2.10;99.90
21762;DHT22;11203;50.870;20.682;2023-03-01T07:48:20;-2.10;1.00
21762;DHT22;11203;50.870;20.682;2023-03-01T07:50:46;-1.90;8.00
21762;DHT22;11203;50.870;20.682;2023-03-01T07:53:12;-1.80;1.00
21762;DHT22;11203;50.870;20.682;2023-03-01T07:55:39;-1.60;1.00
21762;DHT22;11203;50.870;20.682;2023-03-01T07:58:05;-1.50;99.90
21762;DHT22;11203;50.870;20.682;2023-03-01T08:00:31;-1.40;99.90
21762;DHT22;11203;50.870;20.682;2023-03-01T08:03:00;-1.40;99.90
21762;DHT22;11203;50.870;20.682;2023-03-01T08:05:28;-1.30;99.90
21762;DHT22;11203;50.870;20.682;2023-03-01T08:07:54;-1.20;99.90
21762;DHT22;11203;50.870;20.682;2023-03-01T08:10:20;-1.10;99.90
21762;DHT22;11203;50.870;20.682;2023-03-01T08:12:46;-1.10;1.00
21762;DHT22;11203;50.870;20.682;2023-03-01T08:15:13;-1.00;9.40
21762;DHT22;11203;50.870;20.682;2023-03-01T08:17:39;-0.90;30.70
21762;DHT22;11203;50.870;20.682;2023-03-01T08:20:06;-0.80;1.00
21762;DHT22;11203;50.870;20.682;2023-03-01T08:22:32;-0.80;1.00
21762;DHT22;11203;50.870;20.682;2023-03-01T08:24:59;-0.60;1.00
21762;DHT22;11203;50.870;20.682;2023-03-01T08:27:25;-0.50;1.00
21762;DHT22;11203;50.870;20.682;2023-03-01T08:29:51;-0.40;1.00
21762;DHT22;11203;50.870;20.682;2023-03-01T08:32:17;-0.30;1.00
21762;DHT22;11203;50.870;20.682;2023-03-01T08:34:46;-0.40;1.00
21762;DHT22;11203;50.870;20.682;2023-03-01T08:37:13;-0.30;1.00
21762;DHT22;11203;50.870;20.682;2023-03-01T08:39:39;-0.20;1.00
21762;DHT22;11203;50.870;20.682;2023-03-01T08:42:05;-0.20;1.00
21762;DHT22;11203;50.870;20.682;2023-03-01T08:44:31;0.00;65.20
21762;DHT22;11203;50.870;20.682;2023-03-01T08:46:57;0.10;1.00
21762;DHT22;11203;50.870;20.682;2023-03-01T08:49:23;0.10;1.00
21762;DHT22;11203;50.870;20.682;2023-03-01T08:51:50;0.20;1.00
21762;DHT22;11203;50.870;20.682;2023-03-01T08:54:21;0.20;99.90
21762;DHT22;11203;50.870;20.682;2023-03-01T08:56:48;0.30;1.00
21762;DHT22;11203;50.870;20.682;2023-03-01T08:59:16;0.30;1.00
21762;DHT22;11203;50.870;20.682;2023-03-01T09:01:42;0.40;99.90
21762;DHT22;11203;50.870;20.682;2023-03-01T09:04:11;0.50;99.90
21762;DHT22;11203;50.870;20.682;2023-03-01T09:06:37;0.60;1.00
21762;DHT22;11203;50.870;20.682;2023-03-01T09:09:05;0.70;99.90
21762;DHT22;11203;50.870;20.682;2023-03-01T09:11:33;0.80;1.00
21762;DHT22;11203;50.870;20.682;2023-03-01T09:13:59;0.80;1.00
21762;DHT22;11203;50.870;20.682;2023-03-01T09:16:25;0.90;1.00
21762;DHT22;11203;50.870;20.682;2023-03-01T09:18:53;0.90;1.00
21762;DHT22;11203;50.870;20.682;2023-03-01T09:21:21;0.90;1.00
21762;DHT22;11203;50.870;20.682;2023-03-01T09:23:49;1.00;99.90
21762;DHT22;11203;50.870;20.682;2023-03-01T09:26:17;1.10;99.90
21762;DHT22;11203;50.870;20.682;2023-03-01T09:28:45;1.10;1.00
21762;DHT22;11203;50.870;20.682;2023-03-01T09:31:13;1.20;1.00
21762;DHT22;11203;50.870;20.682;2023-03-01T09:33:41;1.30;1.00
21762;DHT22;11203;50.870;20.682;2023-03-01T09:36:14;1.30;1.00
21762;DHT22;11203;50.870;20.682;2023-03-01T09:38:47;1.40;99.90
21762;DHT22;11203;50.870;20.682;2023-03-01T09:46:44;1.60;99.90
21762;DHT22;11203;50.870;20.682;2023-03-01T09:49:26;1.70;1.00
21762;DHT22;11203;50.870;20.682;2023-03-01T09:52:17;1.70;99.90
21762;DHT22;11203;50.870;20.682;2023-03-01T09:54:54;1.70;1.00
21762;DHT22;11203;50.870;20.682;2023-03-01T09:57:53;1.90;99.90
21762;DHT22;11203;50.870;20.682;2023-03-01T10:00:47;2.00;99.90
21762;DHT22;11203;50.870;20.682;2023-03-01T10:03:34;2.10;4.80
21762;DHT22;11203;50.870;20.682;2023-03-01T10:06:06;2.30;99.90
21762;DHT22;11203;50.870;20.682;2023-03-01T10:08:56;2.30;99.90
21762;DHT22;11203;50.870;20.682;2023-03-01T10:11:28;2.30;99.90
21762;DHT22;11203;50.870;20.682;2023-03-01T10:17:19;2.40;99.90
21762;DHT22;11203;50.870;20.682;2023-03-01T10:20:24;2.40;1.00
21762;DHT22;11203;50.870;20.682;2023-03-01T10:22:52;2.50;99.90
21762;DHT22;11203;50.870;20.682;2023-03-01T10:31:23;2.80;99.90
21762;DHT22;11203;50.870;20.682;2023-03-01T10:33:54;3.10;99.90
21762;DHT22;11203;50.870;20.682;2023-03-01T10:36:23;3.00;1.00
21762;DHT22;11203;50.870;20.682;2023-03-01T10:38:55;3.00;99.90
21762;DHT22;11203;50.870;20.682;2023-03-01T10:41:25;3.00;99.90
21762;DHT22;11203;50.870;20.682;2023-03-01T10:43:55;3.10;1.00
21762;DHT22;11203;50.870;20.682;2023-03-01T10:46:34;3.20;99.90
21762;DHT22;11203;50.870;20.682;2023-03-01T10:49:21;3.30;1.00
21762;DHT22;11203;50.870;20.682;2023-03-01T10:51:50;3.30;1.00
21762;DHT22;11203;50.870;20.682;2023-03-01T10:54:31;3.30;1.00
21762;DHT22;11203;50.870;20.682;2023-03-01T10:57:03;3.40;1.00
21762;DHT22;11203;50.870;20.682;2023-03-01T10:59:34;3.50;1.00
21762;DHT22;11203;50.870;20.682;2023-03-01T11:02:28;3.60;1.00
21762;DHT22;11203;50.870;20.682;2023-03-01T11:05:22;3.50;1.00
21762;DHT22;11203;50.870;20.682;2023-03-01T11:07:57;3.70;1.00
21762;DHT22;11203;50.870;20.682;2023-03-01T11:10:33;3.70;1.00
21762;DHT22;11203;50.870;20.682;2023-03-01T11:13:19;3.80;1.00
21762;DHT22;11203;50.870;20.682;2023-03-01T11:16:07;3.90;1.00
21762;DHT22;11203;50.870;20.682;2023-03-01T11:18:36;3.90;1.00
21762;DHT22;11203;50.870;20.682;2023-03-01T11:21:03;4.10;1.00
21762;DHT22;11203;50.870;20.682;2023-03-01T11:23:31;4.20;1.00
21762;DHT22;11203;50.870;20.682;2023-03-01T11:26:07;4.20;1.00
21762;DHT22;11203;50.870;20.682;2023-03-01T11:28:37;4.20;1.00
21762;DHT22;11203;50.870;20.682;2023-03-01T11:31:07;4.30;1.00
21762;DHT22;11203;50.870;20.682;2023-03-01T11:33:51;4.20;1.00
21762;DHT22;11203;50.870;20.682;2023-03-01T11:39:20;4.10;1.00
21762;DHT22;11203;50.870;20.682;2023-03-01T11:41:56;4.20;1.00
21762;DHT22;11203;50.870;20.682;2023-03-01T11:44:50;4.40;1.00
21762;DHT22;11203;50.870;20.682;2023-03-01T11:48:00;4.40;1.00
21762;DHT22;11203;50.870;20.682;2023-03-01T11:50:45;4.50;1.00
21762;DHT22;11203;50.870;20.682;2023-03-01T12:05:20;4.80;1.00
21762;DHT22;11203;50.870;20.682;2023-03-01T12:11:21;4.80;1.00
21762;DHT22;11203;50.870;20.682;2023-03-01T12:17:04;5.00;1.00
21762;DHT22;11203;50.870;20.682;2023-03-01T12:23:13;5.00;1.00
21762;DHT22;11203;50.870;20.682;2023-03-01T12:28:30;4.90;1.00
21762;DHT22;11203;50.870;20.682;2023-03-01T12:31:44;5.00;1.00
21762;DHT22;11203;50.870;20.682;2023-03-01T12:43:17;5.40;1.00
21762;DHT22;11203;50.870;20.682;2023-03-01T12:46:09;5.30;1.00
21762;DHT22;11203;50.870;20.682;2023-03-01T12:49:12;5.40;1.00
21762;DHT22;11203;50.870;20.682;2023-03-01T12:51:40;5.40;1.00
21762;DHT22;11203;50.870;20.682;2023-03-01T12:54:35;5.50;1.00
21762;DHT22;11203;50.870;20.682;2023-03-01T12:57:26;5.50;1.00
21762;DHT22;11203;50.870;20.682;2023-03-01T13:00:28;5.60;1.00
21762;DHT22;11203;50.870;20.682;2023-03-01T13:03:19;5.50;1.00
21762;DHT22;11203;50.870;20.682;2023-03-01T13:06:19;5.60;1.00
21762;DHT22;11203;50.870;20.682;2023-03-01T13:09:05;5.40;1.00
21762;DHT22;11203;50.870;20.682;2023-03-01T13:11:35;5.70;1.00
21762;DHT22;11203;50.870;20.682;2023-03-01T13:16:47;5.70;1.00
21762;DHT22;11203;50.870;20.682;2023-03-01T13:19:18;5.60;1.00
21762;DHT22;11203;50.870;20.682;2023-03-01T13:21:50;5.70;1.00
21762;DHT22;11203;50.870;20.682;2023-03-01T13:24:33;5.60;1.00
21762;DHT22;11203;50.870;20.682;2023-03-01T13:30:03;5.50;1.00
21762;DHT22;11203;50.870;20.682;2023-03-01T13:32:35;5.50;1.00
21762;DHT22;11203;50.870;20.682;2023-03-01T13:37:41;5.50;1.00
21762;DHT22;11203;50.870;20.682;2023-03-01T13:42:53;5.70;1.00
21762;DHT22;11203;50.870;20.682;2023-03-01T13:45:37;5.70;1.00
21762;DHT22;11203;50.870;20.682;2023-03-01T13:50:51;5.60;1.00
21762;DHT22;11203;50.870;20.682;2023-03-01T13:53:23;5.70;1.00
21762;DHT22;11203;50.870;20.682;2023-03-01T13:55:55;5.70;1.00
21762;DHT22;11203;50.870;20.682;2023-03-01T13:58:29;5.70;1.00
21762;DHT22;11203;50.870;20.682;2023-03-01T14:03:30;5.80;1.00
21762;DHT22;11203;50.870;20.682;2023-03-01T14:06:08;5.90;1.00
21762;DHT22;11203;50.870;20.682;2023-03-01T14:08:38;5.80;1.00
21762;DHT22;11203;50.870;20.682;2023-03-01T14:19:12;5.80;1.00
21762;DHT22;11203;50.870;20.682;2023-03-01T14:21:46;5.80;1.00
21762;DHT22;11203;50.870;20.682;2023-03-01T14:24:21;5.80;1.00
21762;DHT22;11203;50.870;20.682;2023-03-01T14:26:49;5.80;1.00
21762;DHT22;11203;50.870;20.682;2023-03-01T14:29:36;5.80;1.00
21762;DHT22;11203;50.870;20.682;2023-03-01T14:32:32;5.90;1.00
21762;DHT22;11203;50.870;20.682;2023-03-01T14:34:59;5.90;1.00
21762;DHT22;11203;50.870;20.682;2023-03-01T14:37:32;5.80;1.00
21762;DHT22;11203;50.870;20.682;2023-03-01T14:40:00;5.90;1.00
21762;DHT22;11203;50.870;20.682;2023-03-01T14:42:35;6.00;1.00
21762;DHT22;11203;50.870;20.682;2023-03-01T14:45:02;5.90;1.00
21762;DHT22;11203;50.870;20.682;2023-03-01T14:47:35;5.80;1.00
21762;DHT22;11203;50.870;20.682;2023-03-01T14:50:08;5.80;1.00
21762;DHT22;11203;50.870;20.682;2023-03-01T14:52:38;5.80;1.00
21762;DHT22;11203;50.870;20.682;2023-03-01T14:55:16;5.90;1.00
21762;DHT22;11203;50.870;20.682;2023-03-01T14:57:49;5.80;1.00
21762;DHT22;11203;50.870;20.682;2023-03-01T15:00:29;5.80;1.00
21762;DHT22;11203;50.870;20.682;2023-03-01T15:03:08;5.80;1.00
21762;DHT22;11203;50.870;20.682;2023-03-01T15:05:39;5.80;1.00
21762;DHT22;11203;50.870;20.682;2023-03-01T15:08:06;5.70;1.00
21762;DHT22;11203;50.870;20.682;2023-03-01T15:10:35;5.70;1.00
21762;DHT22;11203;50.870;20.682;2023-03-01T15:13:12;5.60;1.00
21762;DHT22;11203;50.870;20.682;2023-03-01T15:15:49;5.60;1.00
21762;DHT22;11203;50.870;20.682;2023-03-01T15:18:22;5.50;1.00
21762;DHT22;11203;50.870;20.682;2023-03-01T15:20:52;5.40;1.00
21762;DHT22;11203;50.870;20.682;2023-03-01T15:23:29;5.40;1.00
21762;DHT22;11203;50.870;20.682;2023-03-01T15:25:56;5.40;1.00
21762;DHT22;11203;50.870;20.682;2023-03-01T15:28:29;5.30;1.00
21762;DHT22;11203;50.870;20.682;2023-03-01T15:31:00;5.30;1.00
21762;DHT22;11203;50.870;20.682;2023-03-01T15:33:32;5.30;1.00
21762;DHT22;11203;50.870;20.682;2023-03-01T15:36:29;5.20;1.00
21762;DHT22;11203;50.870;20.682;2023-03-01T15:38:58;5.10;1.00
21762;DHT22;11203;50.870;20.682;2023-03-01T15:41:28;5.10;1.00
21762;DHT22;11203;50.870;20.682;2023-03-01T15:43:58;5.10;1.00
21762;DHT22;11203;50.870;20.682;2023-03-01T15:46:33;5.10;1.00
21762;DHT22;11203;50.870;20.682;2023-03-01T15:49:02;5.00;1.00
21762;DHT22;11203;50.870;20.682;2023-03-01T15:51:35;5.00;1.00
21762;DHT22;11203;50.870;20.682;2023-03-01T15:54:11;5.00;1.00
21762;DHT22;11203;50.870;20.682;2023-03-01T15:56:43;4.90;1.00
21762;DHT22;11203;50.870;20.682;2023-03-01T15:59:11;4.90;1.00
21762;DHT22;11203;50.870;20.682;2023-03-01T16:01:39;4.80;1.00
21762;DHT22;11203;50.870;20.682;2023-03-01T16:04:12;4.70;1.00
21762;DHT22;11203;50.870;20.682;2023-03-01T16:06:51;4.60;1.00
21762;DHT22;11203;50.870;20.682;2023-03-01T16:09:25;4.60;1.00
21762;DHT22;11203;50.870;20.682;2023-03-01T16:11:54;4.40;1.00
21762;DHT22;11203;50.870;20.682;2023-03-01T16:14:20;4.30;1.00
21762;DHT22;11203;50.870;20.682;2023-03-01T16:16:47;4.20;1.00
21762;DHT22;11203;50.870;20.682;2023-03-01T16:19:16;4.10;1.00
21762;DHT22;11203;50.870;20.682;2023-03-01T16:21:42;4.00;1.00
21762;DHT22;11203;50.870;20.682;2023-03-01T16:24:09;3.90;1.00
21762;DHT22;11203;50.870;20.682;2023-03-01T16:26:36;3.90;1.00
21762;DHT22;11203;50.870;20.682;2023-03-01T16:29:03;3.70;1.00
21762;DHT22;11203;50.870;20.682;2023-03-01T16:31:29;3.70;1.00
21762;DHT22;11203;50.870;20.682;2023-03-01T16:33:58;3.60;1.00
21762;DHT22;11203;50.870;20.682;2023-03-01T16:36:26;3.60;1.00
21762;DHT22;11203;50.870;20.682;2023-03-01T16:38:55;3.50;1.00
21762;DHT22;11203;50.870;20.682;2023-03-01T16:41:24;3.40;1.00
21762;DHT22;11203;50.870;20.682;2023-03-01T16:43:50;3.30;1.00
21762;DHT22;11203;50.870;20.682;2023-03-01T16:46:19;3.20;1.00
21762;DHT22;11203;50.870;20.682;2023-03-01T16:48:48;3.20;1.00
21762;DHT22;11203;50.870;20.682;2023-03-01T16:51:15;3.10;1.00
21762;DHT22;11203;50.870;20.682;2023-03-01T16:53:41;3.00;1.00
21762;DHT22;11203;50.870;20.682;2023-03-01T16:56:09;3.00;1.00
21762;DHT22;11203;50.870;20.682;2023-03-01T16:58:38;3.00;1.00
21762;DHT22;11203;50.870;20.682;2023-03-01T17:01:10;3.00;1.00
21762;DHT22;11203;50.870;20.682;2023-03-01T17:03:38;2.90;1.00
21762;DHT22;11203;50.870;20.682;2023-03-01T17:06:11;2.80;1.00
21762;DHT22;11203;50.870;20.682;2023-03-01T17:08:40;2.80;1.00
21762;DHT22;11203;50.870;20.682;2023-03-01T17:11:15;2.70;1.00
21762;DHT22;11203;50.870;20.682;2023-03-01T17:13:44;2.60;1.00
21762;DHT22;11203;50.870;20.682;2023-03-01T17:16:13;2.50;1.00
21762;DHT22;11203;50.870;20.682;2023-03-01T17:18:40;2.40;1.00
21762;DHT22;11203;50.870;20.682;2023-03-01T17:21:06;2.40;1.00
21762;DHT22;11203;50.870;20.682;2023-03-01T17:23:35;2.20;1.00
21762;DHT22;11203;50.870;20.682;2023-03-01T17:26:02;2.20;1.00